Thunder radar more information blitzortung!


Radar de pluja more information rain snow radar


Visita la nostra xarxa de llocs de meteo:

Template documentation
and downloads

And another site



No particular awareness of the weather is required.    There are no Weather-warnings

Pagina Historial Weather Underground text

Diari Resum Novembre 28, 2017 Unitats:  Mètric    Imperial   Tant
« Previous Dia
SegĂźent Dia »
Diari Setmana Mensual Anual Personalitzada
  Maxima: Minima: Media:
Temperatura: -17.8 °C -16.7 °C -13.4 °C
Punt de rosada: -17.8 °C -20.8 °C -18.8 °C
Humitat: Humidity % 40 % 50 %
Wind Speed: 0 km/h 0 km/h 6.8 km/h
RĂ fegues de vent: 0 km/h - -
Vent:- - South
Pression baro: 0 hPa 34222.3 hPa -
Precipitacions: 0 mm    
Historical Graphs
 
 
Dades de taula per Novembre 28, 2017
Temps Temperatura Punt de rosada Pression baro Vent Wind Speed RĂ fegues de vent Humitat Rainfall Rate (Hourly)
-17.8 °C -17.8 °C 0 hPa Calm     Humidity % 0 mm
00:03 -15.4 °C -19.1 °C 34669.3 hPa West 3.1 km/h   62 % 0 mm
00:05 -16.6 °C -19.5 °C 34496.6 hPa Calm   5.1 km/h 68 % 0 mm
00:08 -15.4 °C -19.1 °C 34669.3 hPa Calm     62 % 0 mm
00:13 -15.5 °C -19.2 °C 34669.3 hPa Calm     62 % 0 mm
00:15 -16.6 °C -19.5 °C 34496.6 hPa Calm   5.1 km/h 68 % 0 mm
00:25 -16.6 °C -19.5 °C 34496.6 hPa SW 2.6 km/h 2.6 km/h 68 % 0 mm
00:35 -16.7 °C -19.7 °C 34496.6 hPa SW 2.6 km/h 5.1 km/h 68 % 0 mm
00:45 -16.7 °C -19.6 °C 34496.6 hPa SW 2.6 km/h 5.1 km/h 68 % 0 mm
00:55 -16.7 °C -19.7 °C 34496.6 hPa Calm   5.1 km/h 68 % 0 mm
01:05 -16.7 °C -19.7 °C 34496.6 hPa WSW 2.6 km/h 5.1 km/h 67 % 0 mm
01:15 -16.7 °C -19.7 °C 34496.6 hPa Calm   5.1 km/h 68 % 0 mm
01:25 -16.7 °C -19.7 °C 34496.6 hPa West 5.1 km/h 5.1 km/h 68 % 0 mm
01:35 -16.6 °C -19.6 °C 34496.6 hPa West 2.6 km/h 5.1 km/h 67 % 0 mm
01:45 -16.6 °C -19.5 °C 34496.6 hPa Calm   5.1 km/h 68 % 0 mm
01:55 -16.7 °C -19.7 °C 34496.6 hPa West 5.1 km/h 5.1 km/h 67 % 0 mm
02:05 -16.7 °C -19.7 °C 34496.6 hPa WNW 2.6 km/h 2.6 km/h 67 % 0 mm
02:15 -16.6 °C -19.7 °C 34496.6 hPa NW 2.6 km/h 7.7 km/h 67 % 0 mm
02:25 -16.6 °C -19.8 °C 34496.6 hPa WNW 2.6 km/h 5.1 km/h 66 % 0 mm
02:35 -16.4 °C -19.4 °C 34496.6 hPa West 2.6 km/h 5.1 km/h 67 % 0 mm
02:45 -16.1 °C -19.3 °C 34496.6 hPa West 2.6 km/h 10.3 km/h 66 % 0 mm
02:55 -15.9 °C -19.3 °C 34496.6 hPa NW 2.6 km/h 7.7 km/h 65 % 0 mm
03:05 -15.7 °C -19.2 °C 34496.6 hPa North 5.1 km/h 7.7 km/h 64 % 0 mm
03:15 -15.4 °C -18.9 °C 34496.6 hPa NNE 2.6 km/h 7.7 km/h 64 % 0 mm
03:25 -15.3 °C -18.9 °C 34496.6 hPa NNE 5.1 km/h 5.1 km/h 63 % 0 mm
03:35 -15.2 °C -18.8 °C 34496.6 hPa NNE 2.6 km/h 7.7 km/h 63 % 0 mm
03:45 -14.9 °C -18.6 °C 34496.6 hPa North 5.1 km/h 5.1 km/h 62 % 0 mm
03:55 -14.8 °C -18.5 °C 34533.8 hPa North 5.1 km/h 10.3 km/h 62 % 0 mm
04:05 -14.7 °C -18.6 °C 34496.6 hPa NE 7.7 km/h 7.7 km/h 61 % 0 mm
04:15 -14.5 °C -18.4 °C 34496.6 hPa NE 2.6 km/h 7.7 km/h 61 % 0 mm
04:25 -14.3 °C -18.3 °C 34496.6 hPa NNE 2.6 km/h 7.7 km/h 60 % 0 mm
04:35 -14 °C -18 °C 34496.6 hPa NNE 5.1 km/h 7.7 km/h 60 % 0 mm
04:45 -13.9 °C -18.1 °C 34496.6 hPa NNE 7.7 km/h 7.7 km/h 59 % 0 mm
10:46 -13.9 °C -18.2 °C 34496.6 hPa NNE 9 km/h 9 km/h 58 % 0 mm
10:51 -13.8 °C -18.1 °C 34496.6 hPa ENE 6 km/h 6 km/h 58 % 0 mm
10:56 -13.7 °C -18.2 °C 34496.6 hPa North 11.9 km/h 11.9 km/h 57 % 0 mm
11:01 -13.7 °C -18.2 °C 34496.6 hPa NNE 11.9 km/h 11.9 km/h 57 % 0 mm
11:06 -13.7 °C -18.1 °C 34496.6 hPa NE 15 km/h 15 km/h 57 % 0 mm
11:11 -13.4 °C -17.9 °C 34496.6 hPa NE 7.6 km/h 7.6 km/h 57 % 0 mm
11:24 -13.3 °C -17.9 °C 34496.6 hPa ESE 9 km/h 9 km/h 56 % 0 mm
11:29 -13.1 °C -17.7 °C 34496.6 hPa WNW 11.9 km/h 11.9 km/h 56 % 0 mm
11:34 -13 °C -17.6 °C 34496.6 hPa NNE 11.9 km/h 11.9 km/h 56 % 0 mm
11:40 -13 °C -17.7 °C 34496.6 hPa NE 5.1 km/h 5.1 km/h 55 % 0 mm
11:57 -12.8 °C -17.6 °C 34496.6 hPa WNW 6 km/h 6 km/h 55 % 0 mm
12:02 -12.4 °C -17.4 °C 34462.7 hPa ENE 4.2 km/h 4.2 km/h 54 % 0 mm
12:07 -12.6 °C -17.6 °C 34462.7 hPa ENE 11.9 km/h 11.9 km/h 53 % 0 mm
12:28 -12.4 °C -17.4 °C 34462.7 hPa NNE 11.9 km/h 11.9 km/h 54 % 0 mm
12:33 -12.3 °C -17.3 °C 34428.8 hPa NE 9 km/h 9 km/h 53 % 0 mm
12:39 -12.1 °C -17.2 °C 34428.8 hPa NNE 9 km/h 9 km/h 53 % 0 mm
12:44 -12.1 °C -17.2 °C 34428.8 hPa ENE 9 km/h 9 km/h 53 % 0 mm
12:49 -11.9 °C -17.1 °C 34395 hPa ESE 6 km/h 6 km/h 53 % 0 mm
12:54 -11.6 °C -16.9 °C 34395 hPa ESE 6 km/h 6 km/h 52 % 0 mm
12:59 -11.4 °C -16.7 °C 34395 hPa SSW 6 km/h 6 km/h 52 % 0 mm
13:04 -11.2 °C -16.5 °C 34395 hPa ESE 6 km/h 6 km/h 52 % 0 mm
13:09 -10.8 °C -16.3 °C 34395 hPa SE 8.5 km/h 8.5 km/h 51 % 0 mm
13:19 -11.2 °C -16.7 °C 34361.1 hPa East 11.9 km/h 11.9 km/h 51 % 0 mm
13:24 -11.2 °C -16.6 °C 34361.1 hPa NW 6.3 km/h 6.3 km/h 51 % 0 mm
13:29 -10.9 °C -16.4 °C 34361.1 hPa West 9 km/h 9 km/h 51 % 0 mm
13:34 -10.7 °C -16.2 °C 34361.1 hPa WNW 15 km/h 15 km/h 51 % 0 mm
13:39 -10.6 °C -16.3 °C 34361.1 hPa West 29.8 km/h 29.8 km/h 50 % 0 mm
13:44 -10.6 °C -16.4 °C 34361.1 hPa WNW 26.9 km/h 26.9 km/h 49 % 0 mm
13:49 -10.6 °C -16.4 °C 34361.1 hPa SW 17.9 km/h 17.9 km/h 49 % 0 mm
13:50 -10.5 °C -16.5 °C 34361.1 hPa WSW 17.9 km/h 17.9 km/h 48 % 0 mm
13:55 -10.6 °C -16.9 °C 34361.1 hPa WSW 32.8 km/h 32.8 km/h 46 % 0 mm
14:00 -10.7 °C -17.1 °C 34361.1 hPa West 27.7 km/h 27.7 km/h 45 % 0 mm
14:05 -10.7 °C -17.3 °C 34361.1 hPa WSW 29.8 km/h 29.8 km/h 44 % 0 mm
14:10 -10.7 °C -17.7 °C 34361.1 hPa West 23.8 km/h 23.8 km/h 42 % 0 mm
14:15 -10.6 °C -17.4 °C 34361.1 hPa West 20.9 km/h 20.9 km/h 43 % 0 mm
14:20 -10.7 °C -17.7 °C 34361.1 hPa NW 26.9 km/h 26.9 km/h 42 % 0 mm
14:25 -10.6 °C -17.8 °C 34361.1 hPa WNW 23.8 km/h 23.8 km/h 41 % 0 mm
14:35 -10.6 °C -17.8 °C 34361.1 hPa West 9 km/h 9 km/h 41 % 0 mm
14:50 -10.7 °C -17.9 °C 34327.3 hPa West 9 km/h 9 km/h 41 % 0 mm
14:55 -10.7 °C -17.9 °C 34327.3 hPa WNW 9 km/h 9 km/h 41 % 0 mm
15:00 -10.7 °C -17.9 °C 34327.3 hPa East 15 km/h 15 km/h 41 % 0 mm
15:05 -10.7 °C -17.9 °C 34327.3 hPa NW 9 km/h 9 km/h 41 % 0 mm
15:10 -10.7 °C -17.9 °C 34327.3 hPa SW 9 km/h 9 km/h 41 % 0 mm
15:15 -10.7 °C -17.9 °C 34327.3 hPa WNW 12.7 km/h 12.7 km/h 41 % 0 mm
15:25 -10.7 °C -17.9 °C 34327.3 hPa West 6 km/h 6 km/h 41 % 0 mm
15:30 -10.8 °C -17.9 °C 34293.4 hPa North 11.9 km/h 11.9 km/h 41 % 0 mm
15:45 -10.9 °C -18.1 °C 34327.3 hPa WSW 11.9 km/h 11.9 km/h 41 % 0 mm
15:55 -10.7 °C -17.9 °C 34327.3 hPa NW 15 km/h 15 km/h 41 % 0 mm
16:00 -10.7 °C -17.9 °C 34327.3 hPa WSW 3.1 km/h 3.7 km/h 41 % 0 mm
16:05 -10.7 °C -17.9 °C 34327.3 hPa WNW 5.6 km/h 5.6 km/h 41 % 0 mm
16:10 -10.8 °C -17.9 °C 34327.3 hPa WSW 6 km/h 6 km/h 41 % 0 mm
16:15 -10.6 °C -17.8 °C 34327.3 hPa WSW 9 km/h 9 km/h 41 % 0 mm
16:20 -10.6 °C -17.8 °C 34327.3 hPa SW 3.1 km/h 3.1 km/h 41 % 0 mm
16:25 -10.8 °C -17.9 °C 34327.3 hPa North 3.1 km/h 3.1 km/h 41 % 0 mm
16:35 -10.8 °C -18.2 °C 34327.3 hPa NNW 4.2 km/h 4.2 km/h 40 % 0 mm
16:40 -10.9 °C -18.2 °C 34327.3 hPa SW 6 km/h 6 km/h 40 % 0 mm
16:45 -10.9 °C -18.3 °C 34327.3 hPa WNW 3.1 km/h 3.1 km/h 40 % 0 mm
16:50 -10.9 °C -18.1 °C 34327.3 hPa SSW 9 km/h 9 km/h 41 % 0 mm
16:55 -11.1 °C -18.2 °C 34327.3 hPa West 9 km/h 9 km/h 41 % 0 mm
17:00 -11.3 °C -18.6 °C 34293.4 hPa SW 9 km/h 9 km/h 40 % 0 mm
17:05 -11.3 °C -18.7 °C 34293.4 hPa WSW 6 km/h 6 km/h 40 % 0 mm
17:10 -11.4 °C -18.7 °C 34293.4 hPa SW 5.6 km/h   40 % 0 mm
17:15 -11.7 °C -18.9 °C 34293.4 hPa Calm     40 % 0 mm
17:20 -11.8 °C -19.1 °C 34293.4 hPa SW 4.2 km/h   40 % 0 mm
17:30 -12.1 °C -19.3 °C 34293.4 hPa Calm     40 % 0 mm
17:35 -12.3 °C -19.5 °C 34293.4 hPa Calm     40 % 0 mm
17:40 -12.4 °C -19.6 °C 34293.4 hPa WNW 6 km/h 6 km/h 40 % 0 mm
17:50 -12.6 °C -19.6 °C 34293.4 hPa SSW 6.3 km/h 6.3 km/h 41 % 0 mm
17:55 -12.6 °C -19.6 °C 34293.4 hPa NW 6 km/h 6 km/h 41 % 0 mm
18:10 -12.7 °C -19.7 °C 34293.4 hPa WSW 6 km/h   41 % 0 mm
18:15 -12.7 °C -19.7 °C 34293.4 hPa NW 4.2 km/h   41 % 0 mm
18:20 -12.8 °C -19.8 °C 34293.4 hPa SW 3.1 km/h   41 % 0 mm
18:25 -12.8 °C -19.8 °C 34293.4 hPa WSW 6 km/h 6 km/h 41 % 0 mm
18:30 -12.8 °C -19.8 °C 34293.4 hPa ESE 6.3 km/h   41 % 0 mm
18:36 -12.9 °C -19.9 °C 34293.4 hPa Calm     41 % 0 mm
18:40 -12.9 °C -19.7 °C 34293.4 hPa WNW 6 km/h 6 km/h 42 % 0 mm
18:45 -12.9 °C -19.7 °C 34256.2 hPa NW 7.6 km/h 7.6 km/h 42 % 0 mm
18:48 -13 °C -19.8 °C 34256.2 hPa WSW 9 km/h 9 km/h 42 % 0 mm
18:53 -13 °C -19.8 °C 34256.2 hPa WSW 6.3 km/h 6.3 km/h 42 % 0 mm
19:03 -13.2 °C -19.8 °C 34256.2 hPa West 6 km/h 6 km/h 43 % 0 mm
19:08 -13.2 °C -19.8 °C 34256.2 hPa West 3.1 km/h   43 % 0 mm
19:13 -13.3 °C -19.8 °C 34256.2 hPa SSE 3.1 km/h   43 % 0 mm
19:18 -13.4 °C -19.9 °C 34293.4 hPa WSW 6 km/h 6 km/h 43 % 0 mm
19:23 -13.4 °C -19.8 °C 34293.4 hPa West 6.3 km/h 6.3 km/h 44 % 0 mm
19:33 -13.6 °C -19.9 °C 34293.4 hPa SW 9 km/h 9 km/h 44 % 0 mm
19:43 -13.8 °C -20.1 °C 34293.4 hPa SW 3.1 km/h   45 % 0 mm
19:48 -14 °C -20.2 °C 34256.2 hPa Calm     45 % 0 mm
19:53 -14.1 °C -20.3 °C 34256.2 hPa Calm     45 % 0 mm
19:58 -14.2 °C -20.2 °C 34256.2 hPa NNE 6 km/h 6 km/h 46 % 0 mm
20:03 -14.2 °C -20.2 °C 34256.2 hPa North 3.1 km/h 3.1 km/h 46 % 0 mm
20:08 -14.1 °C -20.1 °C 34256.2 hPa Calm     46 % 0 mm
20:13 -14 °C -19.8 °C 34256.2 hPa West 6 km/h 6 km/h 47 % 0 mm
20:18 -13.9 °C -19.8 °C 34256.2 hPa West 5.1 km/h 5.1 km/h 47 % 0 mm
20:23 -13.9 °C -19.8 °C 34256.2 hPa Calm     47 % 0 mm
20:33 -14.2 °C -19.8 °C 34256.2 hPa NE 3.1 km/h   48 % 0 mm
20:38 -14.2 °C -19.9 °C 34256.2 hPa NNE 6 km/h 6 km/h 48 % 0 mm
20:43 -14.3 °C -20 °C 34256.2 hPa NNE 6 km/h 6 km/h 48 % 0 mm
20:48 -14.3 °C -20 °C 34256.2 hPa NNE 6 km/h 6 km/h 48 % 0 mm
20:58 -14.4 °C -19.9 °C 34256.2 hPa Calm     49 % 0 mm
21:03 -14.4 °C -19.9 °C 34293.4 hPa NNE 3.7 km/h   49 % 0 mm
21:08 -14.4 °C -19.9 °C 34293.4 hPa ENE 4.2 km/h 4.2 km/h 49 % 0 mm
21:13 -14.4 °C -19.8 °C 34293.4 hPa NNE 6 km/h 6 km/h 50 % 0 mm
21:18 -14.4 °C -19.8 °C 34256.2 hPa NE 6 km/h 6 km/h 50 % 0 mm
21:28 -14.4 °C -19.8 °C 34256.2 hPa North 6 km/h 6 km/h 50 % 0 mm
21:33 -14.5 °C -19.8 °C 34256.2 hPa North 3.1 km/h   50 % 0 mm
21:38 -14.4 °C -19.8 °C 34256.2 hPa WNW 3.7 km/h 3.7 km/h 50 % 0 mm
21:43 -14.4 °C -19.8 °C 34256.2 hPa WNW 3.1 km/h 3.1 km/h 50 % 0 mm
21:48 -14.6 °C -19.9 °C 34256.2 hPa Calm     50 % 0 mm
21:53 -14.6 °C -19.9 °C 34256.2 hPa WNW 4.2 km/h 4.2 km/h 50 % 0 mm
22:03 -14.8 °C -19.9 °C 34256.2 hPa West 3.1 km/h   51 % 0 mm
22:08 -14.8 °C -20.1 °C 34256.2 hPa Calm     51 % 0 mm
22:18 -14.8 °C -19.9 °C 34256.2 hPa NNE 6 km/h 6 km/h 51 % 0 mm
22:23 -14.8 °C -20.1 °C 34256.2 hPa East 3.7 km/h   51 % 0 mm
22:28 -15 °C -20.1 °C 34256.2 hPa SSE 7.6 km/h 7.6 km/h 52 % 0 mm
22:38 -15.1 °C -20.1 °C 34256.2 hPa NNE 6 km/h 6 km/h 52 % 0 mm
22:53 -15.2 °C -20.2 °C 34256.2 hPa NNE 3.7 km/h 3.7 km/h 52 % 0 mm
22:54 -15.2 °C -20.2 °C 34256.2 hPa NNE 3.7 km/h 3.7 km/h 52 % 0 mm
23:04 -15.4 °C -20.2 °C 34222.3 hPa North 3.1 km/h 3.1 km/h 53 % 0 mm
23:09 -15.4 °C -20.2 °C 34222.3 hPa WSW 4.2 km/h   53 % 0 mm
23:19 -15.8 °C -20.8 °C 34222.3 hPa SW 6 km/h 6 km/h 52 % 0 mm
23:24 -15.8 °C -20.6 °C 34222.3 hPa SW 6 km/h 6 km/h 53 % 0 mm
23:29 -15.8 °C -20.6 °C 34222.3 hPa SW 3.1 km/h   53 % 0 mm
23:39 -15.8 °C -20.7 °C 34222.3 hPa SW 6 km/h 6 km/h 53 % 0 mm
23:49 -15.9 °C -20.6 °C 34222.3 hPa WNW 3.1 km/h   54 % 0 mm
23:54 -15.9 °C -20.6 °C 34222.3 hPa WNW 3.7 km/h 4.2 km/h 54 % 0 mm
23:59 -15.9 °C -20.6 °C 34222.3 hPa WSW 6.3 km/h 6.3 km/h 54 % 0 mm
Meteo Sesrovires
Elogis d' Weather Underground - 1.5 mb

Guio original per  Jim McMurry - jmcmurry@mwt.net Adaptat per a la plantilla per  Wim van der Kuil - Leuven-Template.eu

Trobareu la nostra informacio del temps tambe a:

Weather Underground

AWEKAS